Aviation Digital Data Service (ADDS)

Output produced by METARs form (0006 UTC 22 November 2014)
found at http://aviationweather.gov/adds/metars/
 
KSSI 212340Z 2200/2224 05006KT P6SM SKC 
     FM220600 05008KT P6SM FEW035 
     FM221100 05010G15KT P6SM SCT035 SCT080 
     FM221300 06012G21KT P6SM SCT025 BKN080 
     FM221600 07014G23KT P6SM VCSH BKN025 OVC070